North Tisbury, Massachusetts
Current Conditions -  °F | °C
As of 2:53 PM on Thursday 30 Oct 2014 (Local Time) from KMVY Reporting Station
Clear Clear  
Wind Chill: 60°   Ceiling: Unl
Heat Index: 60°   Visibility: 10mi
Dew Point: 38°   Wind: 9mph
Humidity: 44%   Direction: 290°WNW
Pressure: 29.91"   Gusts: NA
Location:  41.4442°N, 70.5999°W
Report Text: KMVY 301853Z 29008KT 10SM CLR 16/03 A2991 RMK AO2 SLP127 T01560033
Loading
Personal Weather Stations






























Interactive Weather Map
Tropical Storm Tracking
New forecast layout! Learn more

10-Day Weather Forecast

Advertisements
Track Severe Weather on mobile